Time;durP1;ratioP1;P1;durP2;ratioP2;P2;SDS_P1;SDS_P2;PMS_P1;PMS_P2;Temp;Humidity;BMP_temperature;BMP_pressure;BME280_temperature;BME280_humidity;BME280_pressure;Samples;Min_cycle;Max_cycle;Signal;HPM_P1;HPM_P2
2021/05/21 00:01:10;;;;;;;2.25;0.70;;;;;;;13.08;100.00;100738.06;5224273;28;20502;-84
2021/05/21 00:03:41;;;;;;;3.40;0.82;;;;;;;13.09;100.00;100728.94;5224101;28;20029;-84
2021/05/21 00:06:11;;;;;;;4.22;0.80;;;;;;;13.12;100.00;100731.28;5223963;28;20052;-84
2021/05/21 00:08:41;;;;;;;1.88;1.30;;;;;;;13.20;100.00;100730.34;5224892;28;20383;-84
2021/05/21 00:11:12;;;;;;;5.15;0.80;;;;;;;13.13;100.00;100716.78;5227691;28;20109;-84
2021/05/21 00:13:43;;;;;;;3.33;0.90;;;;;;;13.07;100.00;100711.31;5228156;28;20025;-84
2021/05/21 00:16:13;;;;;;;5.30;0.70;;;;;;;13.08;100.00;100703.03;5227802;28;20025;-84
2021/05/21 00:18:47;;;;;;;2.63;0.82;;;;;;;12.98;100.00;100699.78;5227841;28;20047;-84
2021/05/21 00:21:18;;;;;;;4.43;0.60;;;;;;;12.98;100.00;100707.88;5227659;28;20127;-84
2021/05/21 00:23:48;;;;;;;2.70;1.30;;;;;;;12.94;100.00;100693.94;5228018;28;20388;-84
2021/05/21 00:26:19;;;;;;;3.22;0.75;;;;;;;13.07;100.00;100690.59;5227841;28;20025;-84
2021/05/21 00:28:49;;;;;;;2.05;0.80;;;;;;;13.16;100.00;100681.41;5227683;28;20028;-84
2021/05/21 00:31:20;;;;;;;4.75;1.10;;;;;;;13.20;100.00;100666.56;5227609;28;20036;-85
2021/05/21 00:33:50;;;;;;;2.08;0.90;;;;;;;13.16;100.00;100667.13;5227484;28;20048;-84
2021/05/21 00:36:21;;;;;;;3.50;1.00;;;;;;;13.20;100.00;100676.47;5227343;28;20043;-85
2021/05/21 00:38:51;;;;;;;2.80;1.20;;;;;;;13.23;100.00;100664.53;5227788;28;20028;-85
2021/05/21 00:41:22;;;;;;;4.32;1.05;;;;;;;13.21;100.00;100668.25;5227451;28;20067;-84
2021/05/21 00:43:54;;;;;;;2.50;0.80;;;;;;;13.19;100.00;100680.19;5227457;28;20542;-85
2021/05/21 00:46:25;;;;;;;1.75;0.70;;;;;;;13.18;100.00;100673.13;5227397;28;20021;-84
2021/05/21 00:48:55;;;;;;;1.95;0.70;;;;;;;13.08;100.00;100669.91;5225154;28;20044;-84
2021/05/21 00:51:26;;;;;;;6.47;0.95;;;;;;;12.96;100.00;100659.59;5228225;28;20093;-85
2021/05/21 00:53:58;;;;;;;1.45;1.10;;;;;;;13.02;100.00;100662.56;5227044;28;20021;-84
2021/05/21 00:56:31;;;;;;;5.18;1.20;;;;;;;13.08;100.00;100657.25;5220221;28;20061;-84
2021/05/21 00:59:02;;;;;;;3.05;0.90;;;;;;;13.18;100.00;100663.19;5227235;28;20094;-85
2021/05/21 01:01:33;;;;;;;4.45;1.10;;;;;;;13.24;100.00;100647.34;5227381;28;20057;-84
2021/05/21 01:04:04;;;;;;;6.88;0.82;;;;;;;13.16;100.00;100654.47;5227685;28;20480;-85
2021/05/21 01:06:35;;;;;;;2.72;0.85;;;;;;;13.17;100.00;100642.69;5227122;28;20113;-85
2021/05/21 01:09:05;;;;;;;10.65;1.20;;;;;;;13.22;100.00;100647.53;5227202;28;20021;-84
2021/05/21 01:11:36;;;;;;;2.78;1.08;;;;;;;13.20;100.00;100634.22;5227087;28;20036;-85
2021/05/21 01:14:06;;;;;;;4.13;0.98;;;;;;;13.19;100.00;100637.94;5227497;28;20028;-85
2021/05/21 01:16:39;;;;;;;2.50;1.08;;;;;;;13.15;100.00;100628.56;5226806;28;20104;-85
2021/05/21 01:19:29;;;;;;;8.07;1.23;;;;;;;13.18;100.00;100620.09;5226848;28;20116;-85
2021/05/21 01:21:59;;;;;;;4.22;1.15;;;;;;;13.13;100.00;100619.81;5227491;28;20028;-85
2021/05/21 01:24:38;;;;;;;5.05;1.00;;;;;;;13.08;100.00;100618.72;5227027;28;20392;-84
2021/05/21 01:27:10;;;;;;;5.32;0.90;;;;;;;13.11;100.00;100615.66;5226764;28;20021;-85
2021/05/21 01:29:41;;;;;;;1.90;0.90;;;;;;;13.16;100.00;100607.84;5226457;28;20029;-85
2021/05/21 01:32:11;;;;;;;7.65;1.35;;;;;;;13.13;100.00;100608.22;5226776;28;20025;-85
2021/05/21 01:34:42;;;;;;;4.15;1.40;;;;;;;13.18;100.00;100608.50;5228963;28;20017;-85
2021/05/21 01:37:21;;;;;;;5.82;1.25;;;;;;;13.21;100.00;100610.81;5226345;28;20116;-85
2021/05/21 01:39:51;;;;;;;7.30;1.25;;;;;;;13.17;100.00;100607.66;5224996;28;20029;-85
2021/05/21 01:42:23;;;;;;;8.30;1.90;;;;;;;13.15;100.00;100598.94;5226486;28;20017;-85
2021/05/21 01:44:55;;;;;;;4.70;1.17;;;;;;;13.11;100.00;100594.97;5226607;28;20032;-85
2021/05/21 01:47:25;;;;;;;4.63;0.98;;;;;;;13.15;100.00;100607.03;5226591;28;20376;-85
2021/05/21 01:49:57;;;;;;;8.15;2.28;;;;;;;13.12;100.00;100596.63;5224142;28;20024;-84
2021/05/21 01:52:27;;;;;;;8.55;1.40;;;;;;;13.13;100.00;100600.97;5228188;28;20036;-85
2021/05/21 01:54:58;;;;;;;4.78;1.17;;;;;;;13.11;100.00;100592.25;5235697;28;20020;-86
2021/05/21 01:57:29;;;;;;;7.60;1.50;;;;;;;13.01;100.00;100589.03;5235346;28;20526;-85
2021/05/21 02:00:00;;;;;;;5.78;1.10;;;;;;;12.98;100.00;100578.63;5234592;28;20017;-85
2021/05/21 02:02:30;;;;;;;5.78;1.20;;;;;;;12.93;100.00;100584.56;5233580;28;20039;-85
2021/05/21 02:05:01;;;;;;;5.72;1.27;;;;;;;13.01;100.00;100582.81;5233689;28;20029;-85
2021/05/21 02:07:47;;;;;;;2.20;1.13;;;;;;;12.99;100.00;100584.84;5233932;28;20051;-85
2021/05/21 02:10:18;;;;;;;7.45;1.35;;;;;;;12.96;100.00;100584.22;5234351;28;20043;-85
2021/05/21 02:12:48;;;;;;;6.72;1.60;;;;;;;12.94;100.00;100580.84;5233362;28;20021;-86
2021/05/21 02:15:19;;;;;;;10.23;1.60;;;;;;;12.92;100.00;100579.38;5234947;28;20028;-85
2021/05/21 02:17:50;;;;;;;5.78;1.38;;;;;;;12.96;100.00;100573.44;5235793;28;20248;-85
2021/05/21 02:20:21;;;;;;;5.68;1.20;;;;;;;13.00;100.00;100579.25;5234907;28;20021;-85
2021/05/21 02:22:52;;;;;;;6.80;1.58;;;;;;;12.93;100.00;100581.88;5234933;28;20061;-86
2021/05/21 02:25:22;;;;;;;3.65;1.50;;;;;;;12.91;100.00;100583.94;5233998;28;20046;-85
2021/05/21 02:27:53;;;;;;;3.60;1.45;;;;;;;12.82;100.00;100576.16;5234278;28;20029;-86
2021/05/21 02:30:24;;;;;;;4.85;1.48;;;;;;;12.81;100.00;100585.25;5234485;28;20029;-86
2021/05/21 02:32:55;;;;;;;5.00;1.20;;;;;;;12.84;100.00;100566.00;5234121;28;20417;-85
2021/05/21 02:35:25;;;;;;;8.18;1.20;;;;;;;12.84;100.00;100564.16;5234693;28;20480;-85
2021/05/21 02:37:56;;;;;;;9.55;1.45;;;;;;;12.86;100.00;100566.69;5245078;28;20453;-85
2021/05/21 02:40:26;;;;;;;7.05;1.23;;;;;;;12.85;100.00;100565.84;5227199;28;20033;-85
2021/05/21 02:42:57;;;;;;;5.28;1.13;;;;;;;12.82;100.00;100563.53;5235005;28;20037;-85
2021/05/21 02:45:28;;;;;;;6.28;1.17;;;;;;;12.73;100.00;100556.56;5234411;28;20036;-85
2021/05/21 02:47:58;;;;;;;15.52;1.77;;;;;;;12.78;100.00;100553.31;5234689;28;20341;-85
2021/05/21 02:50:29;;;;;;;4.32;1.33;;;;;;;12.76;100.00;100563.44;5231849;28;20110;-85
2021/05/21 02:52:59;;;;;;;8.68;1.85;;;;;;;12.73;100.00;100561.94;5233422;28;20028;-85
2021/05/21 02:55:29;;;;;;;7.00;1.23;;;;;;;12.68;100.00;100567.88;5231623;28;20029;-85
2021/05/21 02:58:01;;;;;;;4.15;1.15;;;;;;;12.71;100.00;100553.25;5225540;28;20029;-85
2021/05/21 03:00:31;;;;;;;5.25;1.13;;;;;;;12.69;100.00;100560.66;5231599;28;20029;-85
2021/05/21 03:03:01;;;;;;;6.40;1.30;;;;;;;12.66;100.00;100550.28;5229346;28;20431;-86
2021/05/21 03:05:32;;;;;;;12.23;1.60;;;;;;;12.63;100.00;100540.69;5233869;28;20071;-85
2021/05/21 03:08:03;;;;;;;8.93;1.70;;;;;;;12.66;100.00;100545.72;5231929;28;20384;-86
2021/05/21 03:10:33;;;;;;;8.35;1.38;;;;;;;12.62;100.00;100544.41;5231778;28;20025;-85
2021/05/21 03:13:04;;;;;;;5.30;1.38;;;;;;;12.64;100.00;100539.69;5231505;28;20028;-86
2021/05/21 03:15:35;;;;;;;7.10;1.70;;;;;;;12.56;100.00;100538.97;5232673;28;20044;-86
2021/05/21 03:18:18;;;;;;;8.45;1.60;;;;;;;12.54;100.00;100533.75;5232995;28;20481;-85
2021/05/21 03:20:50;;;;;;;14.15;2.00;;;;;;;12.47;100.00;100532.84;5233192;28;20084;-85
2021/05/21 03:23:21;;;;;;;5.20;1.30;;;;;;;12.38;100.00;100534.78;5231449;28;20025;-85
2021/05/21 03:25:51;;;;;;;8.13;1.52;;;;;;;12.34;100.00;100521.88;5227366;28;20052;-85
2021/05/21 03:28:22;;;;;;;9.13;1.48;;;;;;;12.40;100.00;100530.06;5226498;28;20025;-85
2021/05/21 03:30:52;;;;;;;9.68;1.45;;;;;;;12.30;100.00;100525.94;5226636;28;20035;-85
2021/05/21 03:33:23;;;;;;;6.13;1.25;;;;;;;12.23;100.00;100530.41;5226537;28;20502;-85
2021/05/21 03:35:53;;;;;;;11.40;1.83;;;;;;;12.16;100.00;100524.94;5225976;28;20084;-85
2021/05/21 03:38:24;;;;;;;8.43;1.38;;;;;;;12.18;100.00;100521.03;5226801;28;20021;-86
2021/05/21 03:40:55;;;;;;;6.25;1.33;;;;;;;12.19;100.00;100525.41;5225826;28;20098;-85
2021/05/21 03:43:25;;;;;;;6.22;1.33;;;;;;;12.27;100.00;100520.97;5226331;28;20527;-85
2021/05/21 03:45:56;;;;;;;13.75;1.42;;;;;;;12.15;100.00;100524.13;5229006;28;20036;-85
2021/05/21 03:48:27;;;;;;;5.43;1.08;;;;;;;12.12;100.00;100512.88;5227788;28;20021;-85
2021/05/21 03:50:57;;;;;;;9.18;1.95;;;;;;;12.09;100.00;100510.56;5229327;28;20057;-85
2021/05/21 03:53:28;;;;;;;10.60;1.55;;;;;;;12.09;100.00;100519.44;5229413;28;20032;-85
2021/05/21 03:55:58;;;;;;;9.80;2.13;;;;;;;12.01;100.00;100518.72;5226737;28;20025;-86
2021/05/21 03:58:31;;;;;;;9.13;1.98;;;;;;;11.89;100.00;100521.00;5225449;28;20071;-85
2021/05/21 04:01:03;;;;;;;13.30;2.22;;;;;;;11.98;100.00;100513.69;5229274;28;20028;-85
2021/05/21 04:03:34;;;;;;;16.65;1.85;;;;;;;11.93;100.00;100507.00;5241349;28;20071;-84
2021/05/21 04:06:04;;;;;;;9.40;1.65;;;;;;;11.93;100.00;100512.41;5229781;28;20021;-84
2021/05/21 04:08:35;;;;;;;10.75;2.60;;;;;;;11.90;100.00;100503.88;5229142;28;20035;-85
2021/05/21 04:11:06;;;;;;;13.93;2.20;;;;;;;11.85;100.00;100501.75;5228485;28;20021;-85
2021/05/21 04:13:36;;;;;;;12.25;1.90;;;;;;;11.75;100.00;100497.63;5227808;28;20106;-85
2021/05/21 04:16:06;;;;;;;13.10;2.20;;;;;;;11.69;100.00;100504.53;5228254;28;20498;-85
2021/05/21 04:18:37;;;;;;;8.38;1.80;;;;;;;11.64;100.00;100496.16;5228501;28;20033;-86
2021/05/21 04:21:07;;;;;;;6.35;2.30;;;;;;;11.70;100.00;100503.53;5226980;28;20017;-85
2021/05/21 04:23:39;;;;;;;7.90;1.48;;;;;;;11.74;100.00;100501.28;5237804;28;20083;-85
2021/05/21 04:26:10;;;;;;;7.32;2.00;;;;;;;11.87;100.00;100496.16;5237703;28;20415;-85
2021/05/21 04:28:41;;;;;;;8.63;1.75;;;;;;;11.99;100.00;100493.84;5236528;28;20037;-85
2021/05/21 04:31:11;;;;;;;9.10;3.03;;;;;;;11.98;100.00;100484.97;5236364;28;20033;-85
2021/05/21 04:33:42;;;;;;;5.60;1.40;;;;;;;11.92;100.00;100480.31;5236467;28;20107;-85
2021/05/21 04:36:12;;;;;;;11.00;2.03;;;;;;;11.89;100.00;100478.81;5236747;28;20037;-85
2021/05/21 04:38:43;;;;;;;8.90;1.50;;;;;;;11.83;100.00;100476.88;5236225;28;20025;-85
2021/05/21 04:41:14;;;;;;;6.32;1.95;;;;;;;11.92;100.00;100485.69;5236587;28;20053;-85
2021/05/21 04:43:46;;;;;;;5.20;1.65;;;;;;;11.97;100.00;100480.59;5236613;28;20163;-85
2021/05/21 04:46:16;;;;;;;6.65;1.40;;;;;;;11.98;100.00;100476.91;5237400;28;20017;-85
2021/05/21 04:48:47;;;;;;;12.23;2.45;;;;;;;11.99;100.00;100475.88;5235108;28;20140;-85
2021/05/21 04:51:17;;;;;;;8.73;2.30;;;;;;;11.96;100.00;100475.44;5236347;28;20029;-86
2021/05/21 04:53:48;;;;;;;10.32;1.80;;;;;;;12.01;100.00;100473.84;5234368;28;20060;-85
2021/05/21 04:56:19;;;;;;;10.45;1.92;;;;;;;12.02;100.00;100472.81;5235292;28;20025;-85
2021/05/21 04:58:49;;;;;;;5.35;1.63;;;;;;;12.07;100.00;100475.78;5235356;28;20029;-86
2021/05/21 05:01:20;;;;;;;7.03;1.85;;;;;;;11.99;100.00;100470.50;5236259;28;20020;-86
2021/05/21 05:03:50;;;;;;;6.50;1.58;;;;;;;11.96;100.00;100468.19;5236705;28;20044;-86
2021/05/21 05:06:21;;;;;;;7.93;1.77;;;;;;;11.90;100.00;100468.94;5236156;28;20021;-85
2021/05/21 05:08:52;;;;;;;9.10;2.25;;;;;;;11.82;100.00;100471.69;5236580;28;20032;-85
2021/05/21 05:11:22;;;;;;;9.85;2.20;;;;;;;11.79;100.00;100470.16;5232739;28;20062;-85
2021/05/21 05:13:52;;;;;;;9.85;1.85;;;;;;;11.66;100.00;100459.22;5227627;28;20029;-85
2021/05/21 05:16:23;;;;;;;10.95;2.22;;;;;;;11.63;100.00;100463.09;5226744;28;20039;-85
2021/05/21 05:18:54;;;;;;;13.80;2.10;;;;;;;11.47;100.00;100470.47;5227034;28;20020;-86
2021/05/21 05:21:25;;;;;;;7.78;2.03;;;;;;;11.32;100.00;100459.69;5226431;28;20024;-84
2021/05/21 05:23:56;;;;;;;16.85;3.15;;;;;;;11.10;100.00;100472.97;5227183;28;20020;-84
2021/05/21 05:26:26;;;;;;;13.65;2.35;;;;;;;10.87;100.00;100467.56;5227873;28;20052;-83
2021/05/21 05:28:58;;;;;;;13.88;2.53;;;;;;;10.78;100.00;100467.78;5227426;28;20028;-85
2021/05/21 05:31:28;;;;;;;12.98;2.85;;;;;;;10.52;100.00;100458.19;5227278;28;20043;-85
2021/05/21 05:33:58;;;;;;;13.80;2.95;;;;;;;10.37;100.00;100460.78;5227138;28;20020;-84
2021/05/21 05:36:29;;;;;;;14.48;2.65;;;;;;;10.25;100.00;100459.50;5206188;28;601699;-84
2021/05/21 05:38:59;;;;;;;16.92;3.08;;;;;;;10.17;100.00;100461.34;5227484;28;20338;-84
2021/05/21 05:41:30;;;;;;;21.98;4.35;;;;;;;10.20;100.00;100466.38;5227485;28;20029;-84
2021/05/21 05:44:01;;;;;;;14.88;3.25;;;;;;;10.23;100.00;100471.34;5227346;28;20104;-85
2021/05/21 05:46:31;;;;;;;23.30;2.92;;;;;;;10.27;100.00;100467.38;5227254;28;20051;-84
2021/05/21 05:49:02;;;;;;;21.38;3.30;;;;;;;10.36;100.00;100469.84;5223949;28;20029;-84
2021/05/21 05:51:32;;;;;;;17.95;2.88;;;;;;;10.46;100.00;100476.84;5226719;28;20116;-86
2021/05/21 05:54:04;;;;;;;20.05;4.32;;;;;;;10.61;100.00;100472.41;5226634;28;20052;-84
2021/05/21 05:56:34;;;;;;;17.80;2.33;;;;;;;10.64;100.00;100464.00;5226550;28;20083;-84
2021/05/21 05:59:05;;;;;;;16.83;2.92;;;;;;;10.74;100.00;100458.41;5226327;28;20028;-85
2021/05/21 06:01:35;;;;;;;17.00;3.15;;;;;;;10.95;100.00;100461.31;5226327;28;20025;-84
2021/05/21 06:04:06;;;;;;;19.98;3.45;;;;;;;12.53;100.00;100459.44;5231513;28;20029;-84
2021/05/21 06:06:36;;;;;;;17.70;3.15;;;;;;;13.46;100.00;100447.81;5225219;28;20029;-85
2021/05/21 06:09:09;;;;;;;20.65;2.63;;;;;;;14.04;100.00;100452.13;5226017;28;20499;-84
2021/05/21 06:11:39;;;;;;;17.85;2.67;;;;;;;14.87;100.00;100450.25;5226132;28;20021;-84
2021/05/21 06:14:09;;;;;;;13.27;2.65;;;;;;;15.66;100.00;100444.97;5229247;28;20025;-84
2021/05/21 06:16:42;;;;;;;13.68;3.08;;;;;;;15.50;100.00;100437.22;5229478;28;20021;-84
2021/05/21 06:19:13;;;;;;;11.07;3.03;;;;;;;15.85;100.00;100447.81;5226570;28;20040;-84
2021/05/21 06:21:43;;;;;;;19.55;3.95;;;;;;;15.49;100.00;100455.31;5227994;28;20025;-86
2021/05/21 06:24:16;;;;;;;14.50;2.85;;;;;;;15.82;100.00;100448.25;5225202;28;20523;-85
2021/05/21 06:29:35;;;;;;;17.88;2.95;;;;;;;15.93;100.00;100456.56;5225937;28;20048;-85
2021/05/21 06:32:06;;;;;;;17.48;2.83;;;;;;;15.32;100.00;100455.94;5226612;28;20028;-85
2021/05/21 06:34:36;;;;;;;15.27;3.33;;;;;;;14.76;100.00;100457.06;5226444;28;20031;-84
2021/05/21 06:37:07;;;;;;;21.58;3.40;;;;;;;13.91;100.00;100452.91;5234628;28;20033;-85
2021/05/21 06:39:37;;;;;;;30.23;3.97;;;;;;;13.79;100.00;100465.25;5235156;28;20035;-86
2021/05/21 06:42:08;;;;;;;24.67;3.90;;;;;;;13.96;100.00;100461.22;5235848;28;20511;-84
2021/05/21 06:44:38;;;;;;;17.38;3.08;;;;;;;13.59;100.00;100454.31;5235787;28;20044;-84
2021/05/21 06:47:09;;;;;;;17.80;3.38;;;;;;;13.31;100.00;100460.53;5237757;28;20017;-85
2021/05/21 06:49:39;;;;;;;21.95;2.85;;;;;;;13.23;100.00;100457.13;5231483;28;20131;-84
2021/05/21 06:52:10;;;;;;;19.95;2.33;;;;;;;13.21;100.00;100458.16;5227452;28;20082;-85
2021/05/21 06:54:41;;;;;;;21.35;3.67;;;;;;;12.94;100.00;100475.00;5225894;28;20024;-84
2021/05/21 06:57:12;;;;;;;22.20;2.65;;;;;;;12.87;100.00;100464.19;5228041;28;20021;-85
2021/05/21 06:59:42;;;;;;;16.20;3.33;;;;;;;12.94;100.00;100451.63;5226835;28;20403;-86
2021/05/21 07:02:13;;;;;;;25.17;2.78;;;;;;;13.51;100.00;100446.38;5229631;28;20064;-84
2021/05/21 07:04:43;;;;;;;24.17;3.25;;;;;;;13.37;100.00;100467.81;5228400;28;20044;-86
2021/05/21 07:07:14;;;;;;;17.55;3.17;;;;;;;13.64;100.00;100474.25;5228450;28;20100;-84
2021/05/21 07:09:44;;;;;;;24.17;4.10;;;;;;;13.68;100.00;100440.50;5228596;28;20051;-85
2021/05/21 07:12:15;;;;;;;21.83;3.75;;;;;;;13.57;100.00;100459.91;5228591;28;20037;-84
2021/05/21 07:14:45;;;;;;;20.73;3.80;;;;;;;13.73;100.00;100454.22;5228117;28;20048;-84
2021/05/21 07:17:16;;;;;;;21.00;2.83;;;;;;;13.93;100.00;100448.97;5228760;28;20059;-85
2021/05/21 07:19:46;;;;;;;20.80;3.22;;;;;;;13.68;100.00;100447.75;5226540;28;20028;-83
2021/05/21 07:22:17;;;;;;;22.92;3.30;;;;;;;13.89;100.00;100460.34;5223294;28;20029;-83
2021/05/21 07:24:47;;;;;;;22.02;3.30;;;;;;;13.70;100.00;100451.94;5224325;28;20024;-84
2021/05/21 07:27:18;;;;;;;20.70;3.15;;;;;;;13.74;100.00;100455.03;5224261;28;20480;-84
2021/05/21 07:29:48;;;;;;;19.88;3.25;;;;;;;13.66;100.00;100456.03;5224238;28;20020;-83
2021/05/21 07:32:19;;;;;;;27.27;3.95;;;;;;;13.55;100.00;100445.78;5223965;28;20021;-85
2021/05/21 07:34:49;;;;;;;19.30;2.85;;;;;;;13.26;100.00;100452.19;5222846;28;20027;-84
2021/05/21 07:37:20;;;;;;;18.88;4.10;;;;;;;13.07;100.00;100464.41;5224030;28;20021;-85
2021/05/21 07:39:50;;;;;;;18.30;3.20;;;;;;;13.00;100.00;100460.78;5224633;28;20083;-83
2021/05/21 07:42:21;;;;;;;19.75;2.67;;;;;;;13.44;100.00;100449.00;5223360;28;20025;-84
2021/05/21 07:44:52;;;;;;;18.08;3.28;;;;;;;13.59;100.00;100432.75;5223184;28;20204;-83
2021/05/21 07:47:22;;;;;;;17.20;2.92;;;;;;;13.58;100.00;100436.47;5223798;28;20116;-83
2021/05/21 07:49:53;;;;;;;25.85;3.10;;;;;;;13.60;100.00;100440.63;5221919;28;20027;-83
2021/05/21 07:52:23;;;;;;;14.30;3.25;;;;;;;13.51;100.00;100455.31;5222926;28;20488;-84
2021/05/21 07:54:54;;;;;;;22.35;4.30;;;;;;;13.59;100.00;100444.34;5223449;28;20527;-84
2021/05/21 07:57:24;;;;;;;18.70;3.00;;;;;;;13.37;100.00;100469.69;5223897;28;20036;-84
2021/05/21 07:59:54;;;;;;;14.23;2.80;;;;;;;13.18;100.00;100455.78;5223200;28;20032;-84
2021/05/21 08:02:25;;;;;;;25.27;2.72;;;;;;;13.35;100.00;100434.00;5223539;28;20028;-84
2021/05/21 08:04:55;;;;;;;26.05;3.17;;;;;;;13.57;100.00;100430.25;5222753;28;20393;-84
2021/05/21 08:07:26;;;;;;;19.38;2.90;;;;;;;13.73;100.00;100432.66;5221827;28;20025;-84
2021/05/21 08:09:57;;;;;;;22.58;2.60;;;;;;;14.19;100.00;100452.84;5223859;28;20060;-85
2021/05/21 08:12:27;;;;;;;21.80;2.72;;;;;;;14.58;100.00;100448.69;5223900;28;20029;-85
2021/05/21 08:14:58;;;;;;;18.55;3.03;;;;;;;14.39;97.22;100442.97;5223796;28;20431;-84
2021/05/21 08:17:33;;;;;;;18.77;3.65;;;;;;;14.42;91.33;100466.03;5223552;28;20024;-84
2021/05/21 08:20:04;;;;;;;17.65;2.60;;;;;;;14.38;96.86;100448.59;5223313;28;20024;-84
2021/05/21 08:22:35;;;;;;;17.27;3.45;;;;;;;14.29;98.12;100445.22;5223300;28;20028;-85
2021/05/21 08:25:06;;;;;;;17.75;2.92;;;;;;;14.40;100.00;100460.00;5223952;28;20024;-84
2021/05/21 08:27:37;;;;;;;14.27;3.15;;;;;;;14.59;100.00;100453.06;5223622;28;20040;-83
2021/05/21 08:30:08;;;;;;;16.40;2.70;;;;;;;14.38;100.00;100452.13;5224321;28;20029;-84
2021/05/21 08:32:38;;;;;;;14.40;2.97;;;;;;;14.09;100.00;100447.81;5226803;28;20033;-84
2021/05/21 08:35:09;;;;;;;32.33;3.67;;;;;;;14.09;100.00;100445.09;5227035;28;20035;-84
2021/05/21 08:37:39;;;;;;;18.27;2.85;;;;;;;14.09;100.00;100457.75;5227046;28;20025;-85
2021/05/21 08:40:13;;;;;;;11.80;2.95;;;;;;;14.44;100.00;100453.16;5226801;28;20031;-84
2021/05/21 08:42:43;;;;;;;18.40;2.58;;;;;;;14.70;100.00;100455.16;5226477;28;20048;-83
2021/05/21 08:45:16;;;;;;;23.13;3.65;;;;;;;14.74;100.00;100448.34;5226763;28;20056;-84
2021/05/21 08:47:47;;;;;;;19.33;3.15;;;;;;;14.69;100.00;100450.81;5227037;28;20029;-85
2021/05/21 08:50:18;;;;;;;19.77;2.83;;;;;;;14.74;100.00;100451.84;5225331;28;20515;-84
2021/05/21 08:52:48;;;;;;;14.32;2.95;;;;;;;14.90;100.00;100447.13;5226807;28;20036;-84
2021/05/21 08:55:19;;;;;;;14.80;2.75;;;;;;;14.91;84.82;100451.47;5226461;28;20021;-85
2021/05/21 08:57:50;;;;;;;16.40;2.40;;;;;;;15.07;89.10;100436.78;5226932;28;20021;-84
2021/05/21 09:00:21;;;;;;;10.85;2.78;;;;;;;15.32;94.06;100434.31;5226420;28;20460;-84
2021/05/21 09:02:51;;;;;;;10.35;2.80;;;;;;;15.38;92.10;100430.78;5226731;28;20029;-84
2021/05/21 09:05:22;;;;;;;18.27;3.63;;;;;;;15.17;77.04;100435.34;5225184;28;20074;-84
2021/05/21 09:07:55;;;;;;;11.07;2.88;;;;;;;15.38;74.94;100447.00;5226341;28;20044;-84
2021/05/21 09:10:25;;;;;;;10.00;2.25;;;;;;;15.69;72.96;100436.41;5226243;28;20075;-84
2021/05/21 09:12:57;;;;;;;19.67;2.47;;;;;;;15.58;73.03;100447.81;5226271;28;20028;-84
2021/05/21 09:15:27;;;;;;;14.52;2.45;;;;;;;15.40;75.77;100442.19;5226196;28;20017;-84
2021/05/21 09:17:59;;;;;;;19.63;2.85;;;;;;;14.90;75.93;100441.72;5226172;28;20040;-83
2021/05/21 09:20:39;;;;;;;12.75;2.75;;;;;;;14.88;80.81;100433.84;5225853;28;20079;-84
2021/05/21 09:23:12;;;;;;;16.13;2.13;;;;;;;15.40;85.68;100439.50;5225841;28;20103;-83
2021/05/21 09:25:42;;;;;;;15.73;2.50;;;;;;;15.28;73.14;100442.81;5224866;28;20056;-84
2021/05/21 09:28:37;;;;;;;23.33;2.97;;;;;;;14.95;75.31;100436.53;5226470;28;20104;-82
2021/05/21 09:31:12;;;;;;;18.48;2.15;;;;;;;15.16;84.27;100432.81;5226056;28;20028;-82
2021/05/21 09:33:44;;;;;;;19.58;2.92;;;;;;;15.45;80.53;100424.31;5225991;28;20029;-84
2021/05/21 09:36:32;;;;;;;13.43;2.75;;;;;;;15.78;72.38;100418.94;5225509;28;20068;-83
2021/05/21 09:39:07;;;;;;;14.13;2.40;;;;;;;16.09;68.19;100403.03;5225631;28;20137;-83
2021/05/21 09:41:48;;;;;;;10.85;2.45;;;;;;;16.04;69.87;100404.50;5229566;28;20035;-83
2021/05/21 09:44:21;;;;;;;17.45;2.85;;;;;;;16.09;76.08;100416.56;5230359;28;20468;-83
2021/05/21 09:46:52;;;;;;;12.00;2.22;;;;;;;16.60;72.76;100419.28;5230633;28;20033;-84
2021/05/21 09:49:39;;;;;;;16.67;2.47;;;;;;;16.42;65.73;100411.88;5227020;28;20029;-84
2021/05/21 09:52:14;;;;;;;11.40;2.55;;;;;;;16.20;65.83;100384.25;5226506;28;20037;-84
2021/05/21 09:54:55;;;;;;;12.63;2.47;;;;;;;16.12;63.95;100395.34;5226524;28;20021;-83
2021/05/21 09:57:32;;;;;;;11.50;2.13;;;;;;;16.13;65.62;100386.16;5219832;28;20290;-84
2021/05/21 10:00:06;;;;;;;19.33;2.47;;;;;;;16.33;69.23;100382.56;5225056;28;20072;-84
2021/05/21 10:02:37;;;;;;;13.10;2.15;;;;;;;16.48;63.41;100377.69;5225082;28;20025;-84
2021/05/21 10:05:08;;;;;;;13.18;2.38;;;;;;;16.62;63.17;100400.09;5225255;28;20112;-85
2021/05/21 10:07:38;;;;;;;18.52;2.50;;;;;;;16.27;64.74;100390.47;5225547;28;20557;-84
2021/05/21 10:10:10;;;;;;;12.40;2.53;;;;;;;16.31;65.01;100390.88;5224377;28;20028;-84
2021/05/21 10:12:43;;;;;;;9.80;2.15;;;;;;;16.08;62.42;100399.50;5225325;28;20024;-84
2021/05/21 10:15:14;;;;;;;15.50;2.72;;;;;;;15.53;64.19;100390.84;5212118;28;20116;-84
2021/05/21 10:17:45;;;;;;;15.60;2.55;;;;;;;15.50;62.72;100400.19;5225467;28;20162;-83
2021/05/21 10:20:17;;;;;;;12.32;2.00;;;;;;;15.08;61.40;100406.84;5224469;28;20021;-84
2021/05/21 10:22:48;;;;;;;15.38;2.85;;;;;;;14.81;63.81;100403.28;5224246;28;20029;-83
2021/05/21 10:25:28;;;;;;;19.27;2.75;;;;;;;14.65;66.44;100411.75;5224693;28;20066;-84
2021/05/21 10:28:04;;;;;;;16.85;2.90;;;;;;;14.70;67.68;100393.06;5224894;28;20461;-84
2021/05/21 10:30:35;;;;;;;7.65;1.55;;;;;;;14.81;64.58;100400.59;5224679;28;20539;-84
2021/05/21 10:33:20;;;;;;;9.95;1.75;;;;;;;14.84;70.27;100405.56;5224148;28;20051;-83
2021/05/21 10:35:50;;;;;;;16.05;2.40;;;;;;;15.00;71.80;100390.84;5224320;28;20035;-83
2021/05/21 10:38:25;;;;;;;20.20;2.55;;;;;;;15.04;67.36;100411.00;5224618;28;20033;-83
2021/05/21 10:41:14;;;;;;;14.60;2.13;;;;;;;15.23;69.18;100396.69;5224686;28;20020;-84
2021/05/21 10:43:47;;;;;;;15.80;2.67;;;;;;;15.57;67.84;100399.38;5222659;28;20025;-83
2021/05/21 10:46:21;;;;;;;19.85;2.60;;;;;;;15.87;63.79;100395.19;5224458;28;20071;-84
2021/05/21 10:49:00;;;;;;;14.50;2.60;;;;;;;15.79;66.16;100408.94;5222519;28;20025;-84
2021/05/21 10:51:50;;;;;;;13.98;2.58;;;;;;;15.81;65.78;100417.66;5224471;28;20434;-83
2021/05/21 10:54:26;;;;;;;22.15;2.60;;;;;;;15.93;68.62;100424.09;5224274;28;20492;-84
2021/05/21 10:57:13;;;;;;;23.02;3.25;;;;;;;15.79;68.56;100414.34;5224244;28;20025;-83
2021/05/21 10:59:56;;;;;;;13.27;2.25;;;;;;;15.55;65.42;100411.22;5224198;28;20032;-83
2021/05/21 11:02:53;;;;;;;9.73;2.42;;;;;;;15.51;75.77;100412.69;5223731;28;20033;-84
2021/05/21 11:05:30;;;;;;;12.73;2.08;;;;;;;16.12;73.10;100413.44;5242750;28;20013;-84
2021/05/21 11:08:04;;;;;;;14.27;2.30;;;;;;;16.37;64.14;100395.44;5228740;28;20027;-84
2021/05/21 11:10:34;;;;;;;22.35;2.90;;;;;;;16.24;64.26;100390.06;5224219;28;20040;-85
2021/05/21 11:13:10;;;;;;;9.63;2.50;;;;;;;16.48;64.11;100383.09;5224577;28;20028;-85
2021/05/21 11:15:44;;;;;;;14.00;2.47;;;;;;;16.71;59.77;100364.44;5225458;28;20054;-86
2021/05/21 11:18:15;;;;;;;14.18;2.47;;;;;;;16.48;59.29;100374.97;5224186;28;20024;-85
2021/05/21 11:20:52;;;;;;;17.83;3.35;;;;;;;16.52;59.86;100357.25;5224800;28;20740;-85
2021/05/21 11:23:33;;;;;;;12.25;2.85;;;;;;;16.40;57.65;100362.50;5224639;28;20029;-86
2021/05/21 11:26:21;;;;;;;15.35;2.72;;;;;;;16.09;58.50;100365.97;5224176;28;20025;-85
2021/05/21 11:28:56;;;;;;;12.70;2.47;;;;;;;15.74;55.70;100360.06;5224713;28;20020;-85
2021/05/21 11:31:29;;;;;;;;;;;;;;;15.55;58.60;100351.72;5223395;28;20120;-85
2021/05/21 11:34:01;;;;;;;10.18;2.20;;;;;;;15.59;57.97;100352.16;5224082;28;19947;-85
2021/05/21 11:36:34;;;;;;;17.08;1.88;;;;;;;15.49;58.70;100347.19;5224145;28;20562;-85
2021/05/21 11:39:06;;;;;;;19.17;2.58;;;;;;;15.27;57.89;100346.59;5224805;28;20541;-84